sensor_id;sensor_type;location;lat;lon;timestamp;P1;durP1;ratioP1;P2;durP2;ratioP2
31438;SDS011;18062;48.872;9.220;2022-09-30T00:00:46;32.10;;;30.60;;
31438;SDS011;18062;48.872;9.220;2022-09-30T00:03:12;35.00;;;33.47;;
31438;SDS011;18062;48.872;9.220;2022-09-30T00:05:38;36.97;;;35.37;;
31438;SDS011;18062;48.872;9.220;2022-09-30T00:08:04;34.53;;;32.80;;
31438;SDS011;18062;48.872;9.220;2022-09-30T00:10:30;39.60;;;37.80;;
31438;SDS011;18062;48.872;9.220;2022-09-30T00:12:56;37.37;;;35.60;;
31438;SDS011;18062;48.872;9.220;2022-09-30T00:15:22;37.13;;;35.30;;
31438;SDS011;18062;48.872;9.220;2022-09-30T00:17:48;34.77;;;33.23;;
31438;SDS011;18062;48.872;9.220;2022-09-30T00:20:14;33.30;;;31.73;;
31438;SDS011;18062;48.872;9.220;2022-09-30T00:22:43;41.97;;;40.03;;
31438;SDS011;18062;48.872;9.220;2022-09-30T00:25:09;34.80;;;33.27;;
31438;SDS011;18062;48.872;9.220;2022-09-30T00:27:36;31.83;;;30.43;;
31438;SDS011;18062;48.872;9.220;2022-09-30T00:30:02;37.63;;;35.93;;
31438;SDS011;18062;48.872;9.220;2022-09-30T00:32:28;26.57;;;25.33;;
31438;SDS011;18062;48.872;9.220;2022-09-30T00:34:54;31.87;;;30.43;;
31438;SDS011;18062;48.872;9.220;2022-09-30T00:37:20;30.97;;;29.43;;
31438;SDS011;18062;48.872;9.220;2022-09-30T00:39:46;26.00;;;24.83;;
31438;SDS011;18062;48.872;9.220;2022-09-30T00:42:13;33.20;;;31.60;;
31438;SDS011;18062;48.872;9.220;2022-09-30T00:47:23;29.77;;;28.40;;
31438;SDS011;18062;48.872;9.220;2022-09-30T00:49:49;27.93;;;26.67;;
31438;SDS011;18062;48.872;9.220;2022-09-30T00:52:16;25.80;;;24.63;;
31438;SDS011;18062;48.872;9.220;2022-09-30T00:54:43;26.10;;;24.93;;
31438;SDS011;18062;48.872;9.220;2022-09-30T00:57:09;25.90;;;24.67;;
31438;SDS011;18062;48.872;9.220;2022-09-30T00:59:36;28.77;;;27.47;;
31438;SDS011;18062;48.872;9.220;2022-09-30T01:02:04;28.47;;;27.20;;
31438;SDS011;18062;48.872;9.220;2022-09-30T01:04:30;31.73;;;30.30;;
31438;SDS011;18062;48.872;9.220;2022-09-30T01:07:03;29.20;;;27.87;;
31438;SDS011;18062;48.872;9.220;2022-09-30T01:09:30;27.57;;;26.20;;
31438;SDS011;18062;48.872;9.220;2022-09-30T01:11:57;32.80;;;31.37;;
31438;SDS011;18062;48.872;9.220;2022-09-30T01:14:24;30.67;;;29.20;;
31438;SDS011;18062;48.872;9.220;2022-09-30T01:25:11;30.93;;;29.50;;
31438;SDS011;18062;48.872;9.220;2022-09-30T01:32:52;28.10;;;26.73;;
31438;SDS011;18062;48.872;9.220;2022-09-30T01:42:56;31.10;;;29.50;;
31438;SDS011;18062;48.872;9.220;2022-09-30T01:45:46;27.17;;;25.97;;
31438;SDS011;18062;48.872;9.220;2022-09-30T01:48:50;29.63;;;28.30;;
31438;SDS011;18062;48.872;9.220;2022-09-30T01:51:07;25.40;;;24.20;;
31438;SDS011;18062;48.872;9.220;2022-09-30T01:57:02;33.07;;;31.63;;
31438;SDS011;18062;48.872;9.220;2022-09-30T01:58:57;30.40;;;29.00;;
31438;SDS011;18062;48.872;9.220;2022-09-30T02:01:32;31.93;;;30.50;;
31438;SDS011;18062;48.872;9.220;2022-09-30T02:04:04;33.80;;;32.27;;
31438;SDS011;18062;48.872;9.220;2022-09-30T02:06:36;30.13;;;28.67;;
31438;SDS011;18062;48.872;9.220;2022-09-30T02:09:05;35.50;;;33.90;;
31438;SDS011;18062;48.872;9.220;2022-09-30T02:11:33;36.17;;;34.50;;
31438;SDS011;18062;48.872;9.220;2022-09-30T02:16:47;27.80;;;26.53;;
31438;SDS011;18062;48.872;9.220;2022-09-30T02:19:32;29.47;;;27.93;;
31438;SDS011;18062;48.872;9.220;2022-09-30T02:22:20;35.90;;;34.30;;
31438;SDS011;18062;48.872;9.220;2022-09-30T02:24:49;30.17;;;28.80;;
31438;SDS011;18062;48.872;9.220;2022-09-30T02:27:18;28.93;;;27.60;;
31438;SDS011;18062;48.872;9.220;2022-09-30T02:29:51;31.77;;;30.40;;
31438;SDS011;18062;48.872;9.220;2022-09-30T02:32:30;31.07;;;29.67;;
31438;SDS011;18062;48.872;9.220;2022-09-30T02:35:02;31.10;;;29.53;;
31438;SDS011;18062;48.872;9.220;2022-09-30T02:37:31;28.43;;;27.13;;
31438;SDS011;18062;48.872;9.220;2022-09-30T02:40:01;29.80;;;28.43;;
31438;SDS011;18062;48.872;9.220;2022-09-30T02:42:28;29.40;;;28.03;;
31438;SDS011;18062;48.872;9.220;2022-09-30T02:44:59;26.53;;;25.33;;
31438;SDS011;18062;48.872;9.220;2022-09-30T02:50:11;31.93;;;30.47;;
31438;SDS011;18062;48.872;9.220;2022-09-30T02:52:47;31.73;;;30.30;;
31438;SDS011;18062;48.872;9.220;2022-09-30T02:55:31;29.00;;;27.63;;
31438;SDS011;18062;48.872;9.220;2022-09-30T02:58:03;27.70;;;26.50;;
31438;SDS011;18062;48.872;9.220;2022-09-30T03:00:33;30.10;;;28.70;;
31438;SDS011;18062;48.872;9.220;2022-09-30T03:03:01;28.07;;;26.83;;
31438;SDS011;18062;48.872;9.220;2022-09-30T03:05:29;32.87;;;31.30;;
31438;SDS011;18062;48.872;9.220;2022-09-30T03:07:55;26.77;;;25.37;;
31438;SDS011;18062;48.872;9.220;2022-09-30T03:10:21;26.17;;;25.03;;
31438;SDS011;18062;48.872;9.220;2022-09-30T03:15:30;31.67;;;30.27;;
31438;SDS011;18062;48.872;9.220;2022-09-30T03:20:52;27.97;;;26.67;;
31438;SDS011;18062;48.872;9.220;2022-09-30T03:23:26;26.00;;;24.90;;
31438;SDS011;18062;48.872;9.220;2022-09-30T03:28:40;27.60;;;26.40;;
31438;SDS011;18062;48.872;9.220;2022-09-30T03:41:23;33.00;;;31.50;;
31438;SDS011;18062;48.872;9.220;2022-09-30T03:48:47;29.10;;;27.80;;
31438;SDS011;18062;48.872;9.220;2022-09-30T03:51:14;25.10;;;23.90;;
31438;SDS011;18062;48.872;9.220;2022-09-30T03:53:41;23.83;;;22.83;;
31438;SDS011;18062;48.872;9.220;2022-09-30T03:56:07;26.50;;;25.30;;
31438;SDS011;18062;48.872;9.220;2022-09-30T03:58:33;24.20;;;23.10;;
31438;SDS011;18062;48.872;9.220;2022-09-30T04:01:01;30.83;;;29.43;;
31438;SDS011;18062;48.872;9.220;2022-09-30T04:03:27;23.77;;;22.73;;
31438;SDS011;18062;48.872;9.220;2022-09-30T04:05:53;25.10;;;24.00;;
31438;SDS011;18062;48.872;9.220;2022-09-30T04:08:19;28.43;;;27.10;;
31438;SDS011;18062;48.872;9.220;2022-09-30T04:10:46;28.07;;;26.80;;
31438;SDS011;18062;48.872;9.220;2022-09-30T04:13:13;25.70;;;24.57;;
31438;SDS011;18062;48.872;9.220;2022-09-30T04:15:39;26.23;;;25.00;;
31438;SDS011;18062;48.872;9.220;2022-09-30T04:18:05;36.03;;;34.37;;
31438;SDS011;18062;48.872;9.220;2022-09-30T04:20:31;25.50;;;24.40;;
31438;SDS011;18062;48.872;9.220;2022-09-30T04:22:58;26.67;;;25.47;;
31438;SDS011;18062;48.872;9.220;2022-09-30T04:25:24;30.40;;;29.03;;
31438;SDS011;18062;48.872;9.220;2022-09-30T04:27:51;23.43;;;22.43;;
31438;SDS011;18062;48.872;9.220;2022-09-30T04:30:17;23.37;;;22.30;;
31438;SDS011;18062;48.872;9.220;2022-09-30T04:32:43;26.60;;;25.40;;
31438;SDS011;18062;48.872;9.220;2022-09-30T04:35:12;26.27;;;25.10;;
31438;SDS011;18062;48.872;9.220;2022-09-30T04:37:42;18.07;;;17.27;;
31438;SDS011;18062;48.872;9.220;2022-09-30T04:40:08;15.00;;;14.30;;
31438;SDS011;18062;48.872;9.220;2022-09-30T04:42:35;19.73;;;18.83;;
31438;SDS011;18062;48.872;9.220;2022-09-30T04:45:01;17.93;;;17.17;;
31438;SDS011;18062;48.872;9.220;2022-09-30T04:47:27;20.90;;;19.93;;
31438;SDS011;18062;48.872;9.220;2022-09-30T04:49:54;24.43;;;23.33;;
31438;SDS011;18062;48.872;9.220;2022-09-30T04:52:21;15.23;;;14.47;;
31438;SDS011;18062;48.872;9.220;2022-09-30T04:54:47;15.23;;;14.53;;
31438;SDS011;18062;48.872;9.220;2022-09-30T04:57:13;22.90;;;21.90;;
31438;SDS011;18062;48.872;9.220;2022-09-30T04:59:39;6.17;;;5.90;;
31438;SDS011;18062;48.872;9.220;2022-09-30T05:02:05;17.33;;;16.60;;
31438;SDS011;18062;48.872;9.220;2022-09-30T05:04:32;18.00;;;17.20;;
31438;SDS011;18062;48.872;9.220;2022-09-30T05:06:58;15.50;;;14.80;;
31438;SDS011;18062;48.872;9.220;2022-09-30T05:09:25;13.87;;;13.23;;
31438;SDS011;18062;48.872;9.220;2022-09-30T05:11:51;14.03;;;13.37;;
31438;SDS011;18062;48.872;9.220;2022-09-30T05:14:17;20.87;;;19.93;;
31438;SDS011;18062;48.872;9.220;2022-09-30T05:16:44;2.33;;;2.27;;
31438;SDS011;18062;48.872;9.220;2022-09-30T05:19:09;2.00;;;1.90;;
31438;SDS011;18062;48.872;9.220;2022-09-30T05:21:35;5.73;;;5.37;;
31438;SDS011;18062;48.872;9.220;2022-09-30T05:24:01;15.23;;;14.57;;
31438;SDS011;18062;48.872;9.220;2022-09-30T05:26:27;1.43;;;1.13;;
31438;SDS011;18062;48.872;9.220;2022-09-30T05:28:53;3.70;;;3.40;;
31438;SDS011;18062;48.872;9.220;2022-09-30T05:31:19;6.70;;;6.37;;
31438;SDS011;18062;48.872;9.220;2022-09-30T05:33:45;3.03;;;1.60;;
31438;SDS011;18062;48.872;9.220;2022-09-30T05:36:13;3.47;;;3.27;;
31438;SDS011;18062;48.872;9.220;2022-09-30T05:38:39;7.30;;;6.93;;
31438;SDS011;18062;48.872;9.220;2022-09-30T05:41:06;5.47;;;5.17;;
31438;SDS011;18062;48.872;9.220;2022-09-30T05:43:32;1.37;;;1.30;;
31438;SDS011;18062;48.872;9.220;2022-09-30T05:45:58;1.47;;;1.37;;
31438;SDS011;18062;48.872;9.220;2022-09-30T05:48:25;16.93;;;16.10;;
31438;SDS011;18062;48.872;9.220;2022-09-30T05:50:55;9.40;;;8.97;;
31438;SDS011;18062;48.872;9.220;2022-09-30T05:53:22;12.10;;;11.57;;
31438;SDS011;18062;48.872;9.220;2022-09-30T05:55:48;13.47;;;12.87;;
31438;SDS011;18062;48.872;9.220;2022-09-30T05:58:15;2.47;;;2.33;;
31438;SDS011;18062;48.872;9.220;2022-09-30T06:00:45;2.83;;;2.70;;
31438;SDS011;18062;48.872;9.220;2022-09-30T06:03:11;8.47;;;8.10;;
31438;SDS011;18062;48.872;9.220;2022-09-30T06:05:37;23.47;;;22.40;;
31438;SDS011;18062;48.872;9.220;2022-09-30T06:08:03;21.03;;;20.07;;
31438;SDS011;18062;48.872;9.220;2022-09-30T06:10:33;25.53;;;24.37;;
31438;SDS011;18062;48.872;9.220;2022-09-30T06:13:03;27.70;;;26.50;;
31438;SDS011;18062;48.872;9.220;2022-09-30T06:15:29;37.37;;;35.73;;
31438;SDS011;18062;48.872;9.220;2022-09-30T06:17:55;30.37;;;29.07;;
31438;SDS011;18062;48.872;9.220;2022-09-30T06:20:22;23.97;;;22.90;;
31438;SDS011;18062;48.872;9.220;2022-09-30T06:22:48;27.90;;;26.70;;
31438;SDS011;18062;48.872;9.220;2022-09-30T06:25:14;20.87;;;19.97;;
31438;SDS011;18062;48.872;9.220;2022-09-30T06:27:42;19.10;;;18.30;;
31438;SDS011;18062;48.872;9.220;2022-09-30T06:30:09;31.17;;;29.77;;
31438;SDS011;18062;48.872;9.220;2022-09-30T06:32:36;29.50;;;28.20;;
31438;SDS011;18062;48.872;9.220;2022-09-30T06:35:02;30.73;;;29.40;;
31438;SDS011;18062;48.872;9.220;2022-09-30T06:37:28;27.87;;;26.57;;
31438;SDS011;18062;48.872;9.220;2022-09-30T06:39:54;30.03;;;28.73;;
31438;SDS011;18062;48.872;9.220;2022-09-30T06:42:20;31.83;;;30.43;;
31438;SDS011;18062;48.872;9.220;2022-09-30T06:44:47;32.97;;;31.37;;
31438;SDS011;18062;48.872;9.220;2022-09-30T06:47:15;36.80;;;35.07;;
31438;SDS011;18062;48.872;9.220;2022-09-30T06:49:43;35.23;;;33.47;;
31438;SDS011;18062;48.872;9.220;2022-09-30T06:52:09;33.73;;;32.00;;
31438;SDS011;18062;48.872;9.220;2022-09-30T06:54:38;35.97;;;34.30;;
31438;SDS011;18062;48.872;9.220;2022-09-30T06:57:05;28.43;;;27.03;;
31438;SDS011;18062;48.872;9.220;2022-09-30T06:59:32;25.67;;;24.50;;
31438;SDS011;18062;48.872;9.220;2022-09-30T07:01:58;26.70;;;25.27;;
31438;SDS011;18062;48.872;9.220;2022-09-30T07:04:24;22.67;;;21.60;;
31438;SDS011;18062;48.872;9.220;2022-09-30T07:06:49;22.80;;;21.73;;
31438;SDS011;18062;48.872;9.220;2022-09-30T07:09:16;20.13;;;19.20;;
31438;SDS011;18062;48.872;9.220;2022-09-30T07:11:42;24.00;;;22.77;;
31438;SDS011;18062;48.872;9.220;2022-09-30T07:14:08;19.43;;;18.50;;
31438;SDS011;18062;48.872;9.220;2022-09-30T07:16:37;16.73;;;15.93;;
31438;SDS011;18062;48.872;9.220;2022-09-30T07:19:03;24.43;;;23.23;;
31438;SDS011;18062;48.872;9.220;2022-09-30T07:21:31;26.37;;;25.13;;
31438;SDS011;18062;48.872;9.220;2022-09-30T07:23:56;20.00;;;18.90;;
31438;SDS011;18062;48.872;9.220;2022-09-30T07:26:24;21.50;;;20.43;;
31438;SDS011;18062;48.872;9.220;2022-09-30T07:28:50;19.23;;;18.33;;
31438;SDS011;18062;48.872;9.220;2022-09-30T07:31:20;16.30;;;15.47;;
31438;SDS011;18062;48.872;9.220;2022-09-30T07:33:47;15.70;;;14.83;;
31438;SDS011;18062;48.872;9.220;2022-09-30T07:36:15;12.10;;;11.50;;
31438;SDS011;18062;48.872;9.220;2022-09-30T07:38:43;9.83;;;9.33;;
31438;SDS011;18062;48.872;9.220;2022-09-30T07:41:13;11.07;;;10.57;;
31438;SDS011;18062;48.872;9.220;2022-09-30T07:43:41;8.60;;;8.10;;
31438;SDS011;18062;48.872;9.220;2022-09-30T07:46:09;7.53;;;7.13;;
31438;SDS011;18062;48.872;9.220;2022-09-30T07:48:36;8.13;;;7.63;;
31438;SDS011;18062;48.872;9.220;2022-09-30T07:51:17;8.67;;;8.27;;
31438;SDS011;18062;48.872;9.220;2022-09-30T07:53:45;11.00;;;10.37;;
31438;SDS011;18062;48.872;9.220;2022-09-30T07:56:12;10.90;;;10.30;;
31438;SDS011;18062;48.872;9.220;2022-09-30T07:58:38;9.73;;;9.23;;
31438;SDS011;18062;48.872;9.220;2022-09-30T08:01:05;9.67;;;9.17;;
31438;SDS011;18062;48.872;9.220;2022-09-30T08:03:35;11.20;;;10.60;;
31438;SDS011;18062;48.872;9.220;2022-09-30T08:06:24;10.53;;;9.93;;
31438;SDS011;18062;48.872;9.220;2022-09-30T08:08:50;9.57;;;9.03;;
31438;SDS011;18062;48.872;9.220;2022-09-30T08:11:16;9.27;;;8.73;;
31438;SDS011;18062;48.872;9.220;2022-09-30T08:13:43;10.70;;;10.13;;
31438;SDS011;18062;48.872;9.220;2022-09-30T08:16:09;12.73;;;11.87;;
31438;SDS011;18062;48.872;9.220;2022-09-30T08:18:35;11.20;;;10.63;;
31438;SDS011;18062;48.872;9.220;2022-09-30T08:21:02;11.90;;;11.20;;
31438;SDS011;18062;48.872;9.220;2022-09-30T08:23:28;11.13;;;10.63;;
31438;SDS011;18062;48.872;9.220;2022-09-30T08:26:27;11.47;;;10.87;;
31438;SDS011;18062;48.872;9.220;2022-09-30T08:28:46;16.73;;;15.37;;
31438;SDS011;18062;48.872;9.220;2022-09-30T08:33:39;15.80;;;14.97;;
31438;SDS011;18062;48.872;9.220;2022-09-30T08:36:06;16.13;;;15.33;;
31438;SDS011;18062;48.872;9.220;2022-09-30T08:38:33;17.90;;;16.90;;
31438;SDS011;18062;48.872;9.220;2022-09-30T08:43:30;24.67;;;23.47;;
31438;SDS011;18062;48.872;9.220;2022-09-30T08:46:08;31.23;;;29.67;;
31438;SDS011;18062;48.872;9.220;2022-09-30T08:51:06;35.03;;;33.27;;
31438;SDS011;18062;48.872;9.220;2022-09-30T08:53:37;42.73;;;40.57;;
31438;SDS011;18062;48.872;9.220;2022-09-30T08:56:04;50.83;;;48.40;;
31438;SDS011;18062;48.872;9.220;2022-09-30T08:58:37;78.63;;;74.93;;
31438;SDS011;18062;48.872;9.220;2022-09-30T09:01:16;84.93;;;80.80;;
31438;SDS011;18062;48.872;9.220;2022-09-30T09:03:44;109.30;;;104.00;;
31438;SDS011;18062;48.872;9.220;2022-09-30T09:06:16;144.53;;;137.47;;
31438;SDS011;18062;48.872;9.220;2022-09-30T09:11:16;240.30;;;228.77;;
31438;SDS011;18062;48.872;9.220;2022-09-30T09:13:49;300.67;;;285.97;;
31438;SDS011;18062;48.872;9.220;2022-09-30T09:16:29;382.20;;;362.20;;
31438;SDS011;18062;48.872;9.220;2022-09-30T09:18:57;434.27;;;411.40;;
31438;SDS011;18062;48.872;9.220;2022-09-30T09:23:52;453.20;;;429.23;;
31438;SDS011;18062;48.872;9.220;2022-09-30T09:26:18;435.83;;;410.73;;
31438;SDS011;18062;48.872;9.220;2022-09-30T09:31:28;487.67;;;460.40;;
31438;SDS011;18062;48.872;9.220;2022-09-30T09:33:55;498.57;;;470.60;;
31438;SDS011;18062;48.872;9.220;2022-09-30T09:40:11;440.77;;;416.70;;
31438;SDS011;18062;48.872;9.220;2022-09-30T09:42:23;486.70;;;458.93;;
31438;SDS011;18062;48.872;9.220;2022-09-30T09:47:35;483.53;;;456.83;;
31438;SDS011;18062;48.872;9.220;2022-09-30T09:50:02;462.70;;;436.92;;
31438;SDS011;18062;48.872;9.220;2022-09-30T09:55:13;473.77;;;447.70;;
31438;SDS011;18062;48.872;9.220;2022-09-30T09:57:41;455.35;;;430.30;;
31438;SDS011;18062;48.872;9.220;2022-09-30T10:00:11;451.88;;;427.25;;
31438;SDS011;18062;48.872;9.220;2022-09-30T10:03:10;475.88;;;449.52;;
31438;SDS011;18062;48.872;9.220;2022-09-30T10:05:39;471.40;;;444.70;;
31438;SDS011;18062;48.872;9.220;2022-09-30T10:08:10;466.15;;;439.52;;
31438;SDS011;18062;48.872;9.220;2022-09-30T10:10:43;471.98;;;445.92;;
31438;SDS011;18062;48.872;9.220;2022-09-30T10:13:18;478.60;;;451.80;;
31438;SDS011;18062;48.872;9.220;2022-09-30T10:15:44;473.17;;;446.67;;
31438;SDS011;18062;48.872;9.220;2022-09-30T10:18:24;471.70;;;445.50;;
31438;SDS011;18062;48.872;9.220;2022-09-30T10:20:56;454.25;;;427.95;;
31438;SDS011;18062;48.872;9.220;2022-09-30T10:23:32;447.52;;;422.95;;
31438;SDS011;18062;48.872;9.220;2022-09-30T10:31:15;458.42;;;432.73;;
31438;SDS011;18062;48.872;9.220;2022-09-30T10:33:43;453.88;;;429.63;;
31438;SDS011;18062;48.872;9.220;2022-09-30T10:38:43;413.75;;;391.65;;
31438;SDS011;18062;48.872;9.220;2022-09-30T10:41:09;397.85;;;376.30;;
31438;SDS011;18062;48.872;9.220;2022-09-30T10:43:42;392.25;;;369.77;;
31438;SDS011;18062;48.872;9.220;2022-09-30T10:46:09;390.00;;;367.80;;
31438;SDS011;18062;48.872;9.220;2022-09-30T10:48:35;375.92;;;353.92;;
31438;SDS011;18062;48.872;9.220;2022-09-30T10:51:03;319.25;;;299.73;;
31438;SDS011;18062;48.872;9.220;2022-09-30T10:53:31;319.08;;;299.00;;
31438;SDS011;18062;48.872;9.220;2022-09-30T10:55:57;283.20;;;266.23;;
31438;SDS011;18062;48.872;9.220;2022-09-30T11:00:52;199.40;;;188.57;;
31438;SDS011;18062;48.872;9.220;2022-09-30T11:03:20;138.95;;;131.90;;
31438;SDS011;18062;48.872;9.220;2022-09-30T11:05:49;108.90;;;103.63;;
31438;SDS011;18062;48.872;9.220;2022-09-30T11:08:17;90.55;;;86.32;;
31438;SDS011;18062;48.872;9.220;2022-09-30T11:11:05;88.03;;;83.95;;
31438;SDS011;18062;48.872;9.220;2022-09-30T11:19:01;95.07;;;90.72;;
31438;SDS011;18062;48.872;9.220;2022-09-30T11:21:42;128.15;;;122.43;;
31438;SDS011;18062;48.872;9.220;2022-09-30T11:26:42;126.80;;;121.03;;
31438;SDS011;18062;48.872;9.220;2022-09-30T11:29:46;136.23;;;129.98;;
31438;SDS011;18062;48.872;9.220;2022-09-30T11:32:11;159.10;;;152.13;;
31438;SDS011;18062;48.872;9.220;2022-09-30T11:37:29;159.45;;;152.35;;
31438;SDS011;18062;48.872;9.220;2022-09-30T11:40:21;159.23;;;152.23;;
31438;SDS011;18062;48.872;9.220;2022-09-30T11:42:56;158.07;;;151.15;;
31438;SDS011;18062;48.872;9.220;2022-09-30T11:50:41;158.85;;;152.00;;
31438;SDS011;18062;48.872;9.220;2022-09-30T11:53:13;151.10;;;144.43;;
31438;SDS011;18062;48.872;9.220;2022-09-30T11:58:23;134.98;;;129.07;;
31438;SDS011;18062;48.872;9.220;2022-09-30T12:00:51;147.70;;;141.27;;
31438;SDS011;18062;48.872;9.220;2022-09-30T12:03:20;128.57;;;122.90;;
31438;SDS011;18062;48.872;9.220;2022-09-30T12:05:48;139.80;;;133.63;;
31438;SDS011;18062;48.872;9.220;2022-09-30T12:08:26;132.63;;;126.82;;
31438;SDS011;18062;48.872;9.220;2022-09-30T12:10:59;117.43;;;112.32;;
31438;SDS011;18062;48.872;9.220;2022-09-30T12:13:30;133.27;;;127.40;;
31438;SDS011;18062;48.872;9.220;2022-09-30T12:15:58;92.32;;;88.30;;
31438;SDS011;18062;48.872;9.220;2022-09-30T12:18:29;97.38;;;93.10;;
31438;SDS011;18062;48.872;9.220;2022-09-30T12:20:58;90.13;;;86.25;;
31438;SDS011;18062;48.872;9.220;2022-09-30T12:23:26;95.40;;;91.20;;
31438;SDS011;18062;48.872;9.220;2022-09-30T12:25:57;95.93;;;91.75;;
31438;SDS011;18062;48.872;9.220;2022-09-30T12:28:25;79.53;;;76.03;;
31438;SDS011;18062;48.872;9.220;2022-09-30T12:33:45;58.22;;;55.70;;
31438;SDS011;18062;48.872;9.220;2022-09-30T12:36:25;75.38;;;72.05;;
31438;SDS011;18062;48.872;9.220;2022-09-30T12:49:04;110.72;;;105.88;;
31438;SDS011;18062;48.872;9.220;2022-09-30T12:51:34;104.07;;;99.53;;
31438;SDS011;18062;48.872;9.220;2022-09-30T12:54:05;59.22;;;56.65;;
31438;SDS011;18062;48.872;9.220;2022-09-30T12:56:36;98.78;;;94.53;;
31438;SDS011;18062;48.872;9.220;2022-09-30T12:59:06;64.05;;;61.22;;
31438;SDS011;18062;48.872;9.220;2022-09-30T13:01:36;52.70;;;50.38;;
31438;SDS011;18062;48.872;9.220;2022-09-30T13:11:40;53.35;;;51.05;;
31438;SDS011;18062;48.872;9.220;2022-09-30T13:14:12;38.80;;;37.15;;
31438;SDS011;18062;48.872;9.220;2022-09-30T13:16:59;28.25;;;27.05;;
31438;SDS011;18062;48.872;9.220;2022-09-30T13:27:35;33.70;;;32.25;;
31438;SDS011;18062;48.872;9.220;2022-09-30T13:30:46;54.92;;;52.50;;
31438;SDS011;18062;48.872;9.220;2022-09-30T13:40:44;180.95;;;170.85;;
31438;SDS011;18062;48.872;9.220;2022-09-30T13:43:15;228.20;;;215.90;;
31438;SDS011;18062;48.872;9.220;2022-09-30T13:45:43;194.27;;;184.05;;
31438;SDS011;18062;48.872;9.220;2022-09-30T13:48:13;159.18;;;150.95;;
31438;SDS011;18062;48.872;9.220;2022-09-30T13:50:47;246.80;;;234.95;;
31438;SDS011;18062;48.872;9.220;2022-09-30T13:53:27;344.13;;;326.55;;
31438;SDS011;18062;48.872;9.220;2022-09-30T13:55:54;350.95;;;332.98;;
31438;SDS011;18062;48.872;9.220;2022-09-30T14:00:56;405.63;;;382.10;;
31438;SDS011;18062;48.872;9.220;2022-09-30T14:08:47;402.23;;;379.83;;
31438;SDS011;18062;48.872;9.220;2022-09-30T14:21:51;281.10;;;266.40;;
31438;SDS011;18062;48.872;9.220;2022-09-30T14:24:24;334.70;;;317.70;;
31438;SDS011;18062;48.872;9.220;2022-09-30T14:31:46;298.50;;;283.83;;
31438;SDS011;18062;48.872;9.220;2022-09-30T14:34:13;274.50;;;260.53;;
31438;SDS011;18062;48.872;9.220;2022-09-30T14:36:40;253.00;;;240.30;;
31438;SDS011;18062;48.872;9.220;2022-09-30T14:39:09;263.10;;;250.07;;
31438;SDS011;18062;48.872;9.220;2022-09-30T14:41:40;263.40;;;250.47;;
31438;SDS011;18062;48.872;9.220;2022-09-30T14:44:12;290.87;;;276.73;;
31438;SDS011;18062;48.872;9.220;2022-09-30T14:46:42;298.87;;;284.60;;
31438;SDS011;18062;48.872;9.220;2022-09-30T14:49:13;328.90;;;312.90;;
31438;SDS011;18062;48.872;9.220;2022-09-30T14:51:42;309.93;;;294.47;;
31438;SDS011;18062;48.872;9.220;2022-09-30T14:54:22;332.23;;;316.20;;
31438;SDS011;18062;48.872;9.220;2022-09-30T14:56:48;314.33;;;299.10;;
31438;SDS011;18062;48.872;9.220;2022-09-30T14:59:16;334.20;;;317.63;;
31438;SDS011;18062;48.872;9.220;2022-09-30T15:01:42;308.30;;;293.00;;
31438;SDS011;18062;48.872;9.220;2022-09-30T15:06:38;310.20;;;295.43;;
31438;SDS011;18062;48.872;9.220;2022-09-30T15:09:16;267.17;;;254.27;;
31438;SDS011;18062;48.872;9.220;2022-09-30T15:11:43;303.43;;;288.60;;
31438;SDS011;18062;48.872;9.220;2022-09-30T15:14:18;276.40;;;262.97;;
31438;SDS011;18062;48.872;9.220;2022-09-30T15:16:51;276.13;;;262.47;;
31438;SDS011;18062;48.872;9.220;2022-09-30T15:19:21;273.17;;;260.03;;
31438;SDS011;18062;48.872;9.220;2022-09-30T15:21:49;291.63;;;277.33;;
31438;SDS011;18062;48.872;9.220;2022-09-30T15:24:19;301.40;;;286.93;;
31438;SDS011;18062;48.872;9.220;2022-09-30T15:26:46;287.53;;;273.87;;
31438;SDS011;18062;48.872;9.220;2022-09-30T15:29:13;258.13;;;245.70;;
31438;SDS011;18062;48.872;9.220;2022-09-30T15:31:44;223.27;;;212.70;;
31438;SDS011;18062;48.872;9.220;2022-09-30T15:36:36;202.13;;;192.37;;
31438;SDS011;18062;48.872;9.220;2022-09-30T15:39:02;223.80;;;213.23;;
31438;SDS011;18062;48.872;9.220;2022-09-30T15:41:29;219.90;;;208.93;;
31438;SDS011;18062;48.872;9.220;2022-09-30T15:44:02;208.93;;;199.43;;
31438;SDS011;18062;48.872;9.220;2022-09-30T15:46:29;182.67;;;174.23;;
31438;SDS011;18062;48.872;9.220;2022-09-30T15:51:24;194.83;;;186.10;;
31438;SDS011;18062;48.872;9.220;2022-09-30T15:53:51;217.53;;;207.57;;
31438;SDS011;18062;48.872;9.220;2022-09-30T15:56:25;245.57;;;234.13;;
31438;SDS011;18062;48.872;9.220;2022-09-30T15:58:58;196.23;;;187.10;;
31438;SDS011;18062;48.872;9.220;2022-09-30T16:01:25;190.67;;;182.10;;
31438;SDS011;18062;48.872;9.220;2022-09-30T16:03:55;188.70;;;179.70;;
31438;SDS011;18062;48.872;9.220;2022-09-30T16:06:23;201.40;;;192.07;;
31438;SDS011;18062;48.872;9.220;2022-09-30T16:08:54;180.20;;;171.97;;
31438;SDS011;18062;48.872;9.220;2022-09-30T16:11:28;162.93;;;155.40;;
31438;SDS011;18062;48.872;9.220;2022-09-30T16:13:55;166.37;;;158.73;;
31438;SDS011;18062;48.872;9.220;2022-09-30T16:16:23;168.97;;;161.07;;
31438;SDS011;18062;48.872;9.220;2022-09-30T16:18:50;147.40;;;140.77;;
31438;SDS011;18062;48.872;9.220;2022-09-30T16:21:27;109.80;;;104.90;;
31438;SDS011;18062;48.872;9.220;2022-09-30T16:23:54;109.63;;;104.57;;
31438;SDS011;18062;48.872;9.220;2022-09-30T16:26:21;118.37;;;113.07;;
31438;SDS011;18062;48.872;9.220;2022-09-30T16:28:52;110.63;;;105.40;;
31438;SDS011;18062;48.872;9.220;2022-09-30T16:31:19;114.03;;;108.70;;
31438;SDS011;18062;48.872;9.220;2022-09-30T16:33:45;96.43;;;91.97;;
31438;SDS011;18062;48.872;9.220;2022-09-30T16:36:12;100.23;;;95.57;;
31438;SDS011;18062;48.872;9.220;2022-09-30T16:38:39;85.63;;;81.57;;
31438;SDS011;18062;48.872;9.220;2022-09-30T16:41:07;77.73;;;74.13;;
31438;SDS011;18062;48.872;9.220;2022-09-30T16:43:34;58.33;;;55.57;;
31438;SDS011;18062;48.872;9.220;2022-09-30T16:46:00;49.07;;;46.77;;
31438;SDS011;18062;48.872;9.220;2022-09-30T16:48:26;44.03;;;42.10;;
31438;SDS011;18062;48.872;9.220;2022-09-30T16:51:03;40.70;;;38.87;;
31438;SDS011;18062;48.872;9.220;2022-09-30T16:53:30;30.27;;;28.87;;
31438;SDS011;18062;48.872;9.220;2022-09-30T16:55:56;30.57;;;29.20;;
31438;SDS011;18062;48.872;9.220;2022-09-30T16:58:22;28.67;;;27.37;;
31438;SDS011;18062;48.872;9.220;2022-09-30T17:00:48;25.90;;;24.70;;
31438;SDS011;18062;48.872;9.220;2022-09-30T17:03:15;21.30;;;20.37;;
31438;SDS011;18062;48.872;9.220;2022-09-30T17:05:42;20.30;;;19.37;;
31438;SDS011;18062;48.872;9.220;2022-09-30T17:08:13;17.63;;;16.77;;
31438;SDS011;18062;48.872;9.220;2022-09-30T17:10:41;13.90;;;13.17;;
31438;SDS011;18062;48.872;9.220;2022-09-30T17:13:07;11.80;;;11.27;;
31438;SDS011;18062;48.872;9.220;2022-09-30T17:15:33;13.07;;;12.33;;
31438;SDS011;18062;48.872;9.220;2022-09-30T17:18:03;10.60;;;10.00;;
31438;SDS011;18062;48.872;9.220;2022-09-30T17:20:31;8.33;;;7.90;;
31438;SDS011;18062;48.872;9.220;2022-09-30T17:22:57;6.80;;;6.53;;